createdAt,value
2018-03-26T00:00:09.437Z,3.60
2018-03-26T00:02:36.740Z,3.50
2018-03-26T00:05:03.242Z,3.50
2018-03-26T00:07:29.756Z,3.50
2018-03-26T00:09:57.009Z,3.60
2018-03-26T00:12:24.249Z,3.60
2018-03-26T00:14:50.809Z,3.60
2018-03-26T00:17:17.314Z,3.60
2018-03-26T00:19:44.767Z,3.50
2018-03-26T00:22:11.275Z,3.50
2018-03-26T00:24:37.779Z,3.50
2018-03-26T00:27:04.277Z,3.50
2018-03-26T00:29:30.762Z,3.50
2018-03-26T00:31:57.232Z,3.50
2018-03-26T00:34:23.731Z,3.40
2018-03-26T00:36:50.225Z,3.40
2018-03-26T00:39:16.805Z,3.30
2018-03-26T00:41:43.317Z,3.40
2018-03-26T00:44:09.821Z,3.40
2018-03-26T00:46:36.311Z,3.50
2018-03-26T00:49:02.794Z,3.50
2018-03-26T00:51:29.272Z,3.40
2018-03-26T00:53:55.771Z,3.40
2018-03-26T00:56:22.284Z,3.50
2018-03-26T00:58:48.805Z,3.50
2018-03-26T01:01:15.279Z,3.50
2018-03-26T01:03:41.774Z,3.50
2018-03-26T01:06:08.250Z,3.40
2018-03-26T01:08:34.735Z,3.30
2018-03-26T01:11:01.247Z,3.30
2018-03-26T01:13:27.723Z,3.40
2018-03-26T01:15:54.262Z,3.40
2018-03-26T01:18:20.828Z,3.40
2018-03-26T01:20:48.050Z,3.30
2018-03-26T01:23:14.554Z,3.30
2018-03-26T01:25:41.071Z,3.30
2018-03-26T01:28:07.579Z,3.30
2018-03-26T01:30:34.067Z,3.30
2018-03-26T01:33:00.550Z,3.20
2018-03-26T01:35:27.074Z,3.30
2018-03-26T01:37:53.556Z,3.30
2018-03-26T01:40:20.036Z,3.20
2018-03-26T01:42:46.521Z,3.20
2018-03-26T01:45:13.004Z,3.30
2018-03-26T01:47:39.480Z,3.20
2018-03-26T01:50:05.983Z,3.20
2018-03-26T01:52:32.520Z,3.30
2018-03-26T01:54:59.041Z,3.20
2018-03-26T01:57:25.551Z,3.10
2018-03-26T01:59:52.042Z,3.00
2018-03-26T02:02:18.562Z,3.00
2018-03-26T02:04:45.055Z,3.00
2018-03-26T02:07:11.538Z,3.00
2018-03-26T02:09:38.038Z,3.00
2018-03-26T02:12:04.543Z,3.00
2018-03-26T02:14:31.031Z,3.00
2018-03-26T02:16:57.536Z,3.00
2018-03-26T02:19:24.030Z,3.00
2018-03-26T02:21:50.605Z,2.90
2018-03-26T02:24:17.102Z,2.90
2018-03-26T02:26:43.650Z,2.80
2018-03-26T02:29:10.152Z,2.80
2018-03-26T02:31:36.715Z,2.90
2018-03-26T02:34:03.221Z,2.90
2018-03-26T02:36:29.734Z,2.90
2018-03-26T02:38:56.220Z,2.80
2018-03-26T02:41:22.711Z,2.80
2018-03-26T02:43:49.184Z,2.80
2018-03-26T02:46:15.710Z,2.80
2018-03-26T02:48:42.241Z,2.80
2018-03-26T02:51:09.480Z,2.70
2018-03-26T02:53:35.984Z,2.70
2018-03-26T02:56:02.488Z,2.70
2018-03-26T02:58:28.979Z,2.70
2018-03-26T03:00:55.485Z,2.60
2018-03-26T03:03:21.987Z,2.70
2018-03-26T03:05:48.518Z,2.60
2018-03-26T03:08:15.014Z,2.60
2018-03-26T03:10:41.526Z,2.60
2018-03-26T03:13:08.724Z,2.50
2018-03-26T03:15:35.962Z,2.30
2018-03-26T03:18:02.515Z,2.30
2018-03-26T03:20:29.725Z,2.30
2018-03-26T03:22:56.202Z,2.30
2018-03-26T03:25:23.432Z,2.30
2018-03-26T03:27:50.633Z,2.30
2018-03-26T03:30:17.129Z,2.30
2018-03-26T03:32:43.631Z,2.20
2018-03-26T03:35:10.109Z,2.20
2018-03-26T03:37:36.619Z,2.10
2018-03-26T03:40:03.133Z,2.00
2018-03-26T03:42:29.639Z,2.00
2018-03-26T03:44:56.126Z,2.00
2018-03-26T03:47:22.646Z,2.00
2018-03-26T03:49:49.154Z,1.80
2018-03-26T03:52:15.626Z,1.70
2018-03-26T03:54:42.179Z,1.60
2018-03-26T03:57:08.692Z,1.60
2018-03-26T03:59:35.172Z,1.50
2018-03-26T04:02:02.238Z,1.50
2018-03-26T04:04:28.771Z,1.40
2018-03-26T04:06:55.301Z,1.40
2018-03-26T04:09:21.822Z,1.30
2018-03-26T04:11:49.098Z,1.30
2018-03-26T04:14:16.323Z,1.20
2018-03-26T04:16:43.563Z,1.20
2018-03-26T04:19:11.737Z,1.20
2018-03-26T04:21:38.253Z,1.20
2018-03-26T04:24:04.743Z,1.20
2018-03-26T04:26:31.230Z,1.10
2018-03-26T04:28:57.753Z,1.10
2018-03-26T04:31:24.290Z,1.10
2018-03-26T04:33:50.797Z,1.10
2018-03-26T04:36:17.319Z,1.10
2018-03-26T04:38:43.814Z,1.10
2018-03-26T04:41:10.333Z,1.10
2018-03-26T04:43:36.808Z,1.10
2018-03-26T04:46:03.300Z,1.20
2018-03-26T04:48:29.791Z,1.20
2018-03-26T04:50:56.312Z,1.10
2018-03-26T04:53:22.773Z,1.10
2018-03-26T04:55:49.330Z,0.90
2018-03-26T04:58:15.790Z,0.70
2018-03-26T05:00:42.257Z,0.60
2018-03-26T05:03:08.768Z,0.60
2018-03-26T05:05:35.326Z,0.80
2018-03-26T05:08:01.859Z,0.80
2018-03-26T05:10:28.376Z,0.80
2018-03-26T05:12:55.600Z,0.80
2018-03-26T05:15:22.110Z,0.80
2018-03-26T05:17:48.657Z,0.70
2018-03-26T05:20:15.133Z,0.70
2018-03-26T05:22:42.543Z,0.60
2018-03-26T05:25:09.016Z,0.60
2018-03-26T05:27:35.551Z,0.50
2018-03-26T05:30:02.821Z,0.70
2018-03-26T05:32:30.067Z,0.70
2018-03-26T05:34:57.359Z,0.70
2018-03-26T05:37:23.828Z,0.80
2018-03-26T05:39:50.358Z,0.70
2018-03-26T05:42:16.857Z,0.80
2018-03-26T05:44:43.360Z,0.80
2018-03-26T05:47:09.869Z,0.80
2018-03-26T05:49:36.536Z,0.90
2018-03-26T05:52:03.036Z,0.90
2018-03-26T05:54:29.514Z,1.00
2018-03-26T05:56:56.037Z,1.10
2018-03-26T05:59:23.260Z,1.20
2018-03-26T06:01:49.828Z,1.20
2018-03-26T06:04:17.110Z,1.40
2018-03-26T06:06:43.688Z,1.40
2018-03-26T06:09:10.165Z,1.40
2018-03-26T06:11:36.751Z,1.40
2018-03-26T06:14:03.233Z,1.50
2018-03-26T06:16:29.775Z,1.60
2018-03-26T06:18:57.128Z,1.70
2018-03-26T06:21:23.655Z,1.70
2018-03-26T06:23:50.947Z,1.90
2018-03-26T06:26:17.505Z,1.90
2018-03-26T06:28:44.031Z,2.00
2018-03-26T06:31:10.583Z,2.00
2018-03-26T06:33:37.251Z,2.20
2018-03-26T06:36:06.659Z,2.20
2018-03-26T06:38:39.959Z,2.40
2018-03-26T06:41:06.522Z,2.40
2018-03-26T06:43:33.048Z,2.50
2018-03-26T06:45:59.530Z,2.50
2018-03-26T06:48:26.024Z,2.60
2018-03-26T06:50:52.549Z,2.80
2018-03-26T06:53:19.052Z,3.00
2018-03-26T06:55:45.579Z,3.10
2018-03-26T06:58:12.096Z,3.50
2018-03-26T07:00:38.629Z,3.10
2018-03-26T07:03:05.099Z,3.40
2018-03-26T07:05:31.616Z,3.30
2018-03-26T07:07:58.170Z,3.80
2018-03-26T07:10:25.390Z,4.30
2018-03-26T07:12:51.929Z,4.30
2018-03-26T07:15:19.167Z,4.50
2018-03-26T07:17:45.668Z,4.50
2018-03-26T07:20:12.220Z,4.30
2018-03-26T07:22:38.735Z,4.50
2018-03-26T07:25:05.294Z,4.80
2018-03-26T07:27:31.794Z,4.90
2018-03-26T07:29:58.325Z,4.50
2018-03-26T07:32:25.572Z,4.40
2018-03-26T07:34:52.801Z,4.30
2018-03-26T07:37:19.283Z,4.30
2018-03-26T07:39:45.766Z,4.30
2018-03-26T07:44:46.019Z,4.20
2018-03-26T07:47:12.523Z,4.20
2018-03-26T07:49:39.777Z,4.30
2018-03-26T07:52:06.322Z,4.30
2018-03-26T07:54:32.825Z,4.20
2018-03-26T07:56:59.308Z,4.50
2018-03-26T07:59:25.804Z,4.50
2018-03-26T08:01:52.326Z,4.50
2018-03-26T08:04:18.860Z,4.50
2018-03-26T08:06:45.363Z,4.60
2018-03-26T08:09:11.862Z,4.70
2018-03-26T08:11:39.130Z,4.80
2018-03-26T08:14:05.651Z,4.80
2018-03-26T08:16:32.158Z,4.90
2018-03-26T08:18:58.663Z,5.20
2018-03-26T08:21:26.016Z,5.80
2018-03-26T08:23:52.545Z,5.80
2018-03-26T08:26:19.828Z,5.40
2018-03-26T08:28:46.333Z,5.30
2018-03-26T08:31:13.586Z,5.50
2018-03-26T08:33:40.825Z,5.70
2018-03-26T08:36:07.303Z,5.70
2018-03-26T08:38:33.807Z,5.80
2018-03-26T08:41:00.278Z,6.40
2018-03-26T08:43:26.789Z,6.60
2018-03-26T08:45:53.293Z,6.80
2018-03-26T08:48:19.781Z,7.20
2018-03-26T08:50:46.316Z,6.70
2018-03-26T08:53:12.899Z,6.30
2018-03-26T08:55:39.380Z,6.60
2018-03-26T08:58:05.949Z,6.60
2018-03-26T09:00:32.497Z,6.60
2018-03-26T09:02:59.020Z,6.80
2018-03-26T09:05:25.478Z,7.10
2018-03-26T09:07:51.992Z,7.10
2018-03-26T09:10:18.491Z,7.40
2018-03-26T09:12:44.993Z,7.70
2018-03-26T09:15:11.475Z,7.90
2018-03-26T09:17:37.953Z,7.70
2018-03-26T09:20:04.455Z,7.90
2018-03-26T09:22:31.065Z,8.70
2018-03-26T09:24:57.550Z,8.70
2018-03-26T09:27:24.798Z,8.30
2018-03-26T09:29:51.355Z,8.20
2018-03-26T09:32:17.855Z,7.90
2018-03-26T09:34:44.431Z,9.00
2018-03-26T09:37:10.898Z,9.10
2018-03-26T09:39:37.389Z,9.70
2018-03-26T09:42:03.856Z,9.00
2018-03-26T09:44:30.424Z,9.20
2018-03-26T09:46:56.944Z,10.00
2018-03-26T09:49:23.427Z,10.60
2018-03-26T09:51:49.901Z,10.30
2018-03-26T09:54:16.398Z,10.50
2018-03-26T09:56:42.878Z,10.20
2018-03-26T09:59:09.372Z,10.90
2018-03-26T10:01:41.739Z,11.00
2018-03-26T10:04:08.230Z,10.70
2018-03-26T10:06:34.729Z,11.40
2018-03-26T10:09:01.941Z,11.30
2018-03-26T10:11:29.176Z,11.60
2018-03-26T10:13:55.683Z,11.60
2018-03-26T10:16:22.204Z,11.70
2018-03-26T10:18:48.690Z,12.40
2018-03-26T10:21:15.191Z,12.50
2018-03-26T10:23:41.696Z,12.50
2018-03-26T10:26:09.125Z,12.50
2018-03-26T10:28:35.601Z,12.60
2018-03-26T10:31:02.839Z,13.00
2018-03-26T10:33:29.350Z,13.00
2018-03-26T10:35:55.869Z,12.90
2018-03-26T10:38:23.154Z,12.70
2018-03-26T10:40:49.627Z,12.60
2018-03-26T10:43:16.125Z,12.80
2018-03-26T10:45:42.673Z,12.80
2018-03-26T10:48:09.197Z,13.40
2018-03-26T10:50:35.693Z,12.70
2018-03-26T10:53:02.247Z,12.70
2018-03-26T10:55:28.782Z,12.30
2018-03-26T10:57:55.255Z,12.10
2018-03-26T11:00:22.550Z,11.90
2018-03-26T11:02:49.100Z,11.90
2018-03-26T11:05:15.584Z,12.10
2018-03-26T11:07:42.803Z,13.00
2018-03-26T11:10:09.398Z,13.00
2018-03-26T11:12:35.897Z,12.80
2018-03-26T11:15:02.390Z,12.40
2018-03-26T11:17:28.891Z,12.20
2018-03-26T11:19:55.389Z,11.40
2018-03-26T11:22:21.879Z,12.20
2018-03-26T11:24:48.405Z,12.30
2018-03-26T11:27:14.901Z,12.30
2018-03-26T11:29:41.391Z,12.70
2018-03-26T11:32:07.899Z,13.20
2018-03-26T11:34:34.477Z,13.10
2018-03-26T11:37:00.997Z,13.80
2018-03-26T11:39:27.491Z,12.50
2018-03-26T11:41:54.774Z,12.80
2018-03-26T11:44:22.037Z,12.80
2018-03-26T11:46:48.545Z,13.10
2018-03-26T11:49:15.044Z,14.00
2018-03-26T11:51:41.517Z,13.60
2018-03-26T11:54:08.013Z,13.50
2018-03-26T11:56:34.574Z,13.00
2018-03-26T11:59:01.813Z,12.10
2018-03-26T12:01:28.311Z,12.10
2018-03-26T12:03:54.779Z,12.20
2018-03-26T12:06:21.246Z,11.70
2018-03-26T12:08:47.781Z,11.40
2018-03-26T12:11:14.280Z,11.10
2018-03-26T12:13:40.868Z,11.80
2018-03-26T12:16:07.404Z,11.90
2018-03-26T12:18:34.669Z,11.90
2018-03-26T12:21:01.985Z,11.60
2018-03-26T12:23:40.706Z,11.60
2018-03-26T12:26:07.978Z,11.60
2018-03-26T12:28:46.657Z,11.60
2018-03-26T12:31:13.138Z,11.40
2018-03-26T12:33:51.731Z,11.50
2018-03-26T12:36:18.263Z,12.10
2018-03-26T12:38:45.508Z,13.30
2018-03-26T12:41:12.776Z,12.60
2018-03-26T12:43:40.013Z,13.00
2018-03-26T12:49:08.535Z,12.80
2018-03-26T12:51:47.084Z,13.10
2018-03-26T12:54:13.574Z,12.70
2018-03-26T12:56:40.816Z,12.30
2018-03-26T12:59:07.311Z,12.30
2018-03-26T13:01:45.863Z,11.50
2018-03-26T13:04:12.347Z,11.90
2018-03-26T13:06:38.826Z,11.90
2018-03-26T13:09:05.320Z,11.50
2018-03-26T13:11:31.794Z,11.20
2018-03-26T13:13:58.317Z,11.40
2018-03-26T13:16:24.808Z,11.50
2018-03-26T13:18:51.336Z,12.20
2018-03-26T13:21:18.603Z,13.30
2018-03-26T13:23:45.155Z,13.20
2018-03-26T13:26:11.683Z,13.40
2018-03-26T13:28:38.234Z,13.60
2018-03-26T13:31:04.776Z,13.10
2018-03-26T13:33:31.278Z,12.50
2018-03-26T13:35:57.777Z,12.20
2018-03-26T13:38:24.249Z,12.10
2018-03-26T13:40:50.779Z,11.90
2018-03-26T13:43:17.259Z,12.20
2018-03-26T13:45:43.742Z,11.90
2018-03-26T13:48:10.246Z,12.00
2018-03-26T13:50:36.816Z,12.10
2018-03-26T13:53:03.330Z,12.00
2018-03-26T13:55:29.825Z,12.20
2018-03-26T13:57:56.349Z,11.70
2018-03-26T14:00:22.833Z,11.70
2018-03-26T14:02:49.333Z,11.70
2018-03-26T14:05:15.826Z,11.40
2018-03-26T14:07:42.324Z,11.20
2018-03-26T14:10:20.864Z,10.80
2018-03-26T14:12:59.511Z,10.80
2018-03-26T14:15:38.081Z,11.00
2018-03-26T14:18:04.653Z,11.30
2018-03-26T14:20:31.145Z,11.30
2018-03-26T14:22:57.625Z,11.50
2018-03-26T14:25:24.216Z,11.50
2018-03-26T14:27:50.790Z,11.50
2018-03-26T14:30:17.284Z,11.50
2018-03-26T14:32:43.780Z,11.20
2018-03-26T14:38:10.433Z,10.90
2018-03-26T14:40:36.921Z,10.90
2018-03-26T14:43:03.446Z,10.70
2018-03-26T14:45:29.923Z,10.70
2018-03-26T14:47:56.409Z,10.70
2018-03-26T14:50:22.898Z,10.60
2018-03-26T14:52:49.429Z,10.40
2018-03-26T14:55:15.950Z,10.30
2018-03-26T14:57:43.465Z,10.10
2018-03-26T15:00:09.958Z,10.10
2018-03-26T15:02:36.466Z,10.20
2018-03-26T15:05:03.024Z,10.00
2018-03-26T15:07:29.516Z,10.20
2018-03-26T15:09:56.057Z,10.30
2018-03-26T15:12:22.559Z,10.30
2018-03-26T15:14:49.082Z,10.20
2018-03-26T15:17:15.549Z,10.00
2018-03-26T15:19:42.811Z,10.10
2018-03-26T15:22:09.324Z,10.10
2018-03-26T15:24:35.853Z,10.10
2018-03-26T15:27:02.344Z,10.10
2018-03-26T15:29:29.577Z,10.30
2018-03-26T15:31:56.069Z,10.30
2018-03-26T15:34:22.653Z,10.30
2018-03-26T15:36:49.161Z,10.20
2018-03-26T15:39:15.663Z,10.10
2018-03-26T15:41:42.178Z,10.00
2018-03-26T15:44:08.693Z,9.80
2018-03-26T15:46:35.191Z,9.80
2018-03-26T15:49:01.714Z,9.80
2018-03-26T15:51:28.228Z,9.80
2018-03-26T15:53:55.279Z,9.70
2018-03-26T15:56:21.828Z,9.70
2018-03-26T15:58:49.117Z,9.60
2018-03-26T16:01:15.598Z,9.60
2018-03-26T16:03:42.850Z,9.50
2018-03-26T16:06:10.076Z,9.50
2018-03-26T16:08:36.585Z,9.50
2018-03-26T16:11:03.133Z,9.40
2018-03-26T16:13:29.601Z,9.30
2018-03-26T16:15:56.107Z,9.40
2018-03-26T16:18:22.630Z,9.40
2018-03-26T16:20:49.126Z,9.30
2018-03-26T16:23:15.623Z,9.20
2018-03-26T16:25:42.111Z,9.10
2018-03-26T16:28:08.635Z,9.10
2018-03-26T16:30:35.105Z,9.10
2018-03-26T16:33:01.639Z,8.90
2018-03-26T16:35:28.091Z,9.00
2018-03-26T16:37:54.610Z,8.90
2018-03-26T16:40:22.704Z,8.90
2018-03-26T16:42:53.073Z,8.90
2018-03-26T16:45:19.591Z,8.80
2018-03-26T16:47:46.114Z,8.80
2018-03-26T16:50:13.413Z,8.80
2018-03-26T16:52:39.943Z,8.70
2018-03-26T16:55:06.439Z,8.80
2018-03-26T16:57:33.675Z,8.90
2018-03-26T17:00:00.241Z,8.90
2018-03-26T17:02:26.781Z,8.80
2018-03-26T17:04:53.288Z,8.70
2018-03-26T17:07:19.801Z,8.60
2018-03-26T17:09:46.333Z,8.50
2018-03-26T17:12:12.950Z,8.50
2018-03-26T17:14:39.442Z,8.50
2018-03-26T17:17:05.946Z,8.30
2018-03-26T17:19:33.193Z,8.30
2018-03-26T17:21:59.696Z,8.30
2018-03-26T17:24:26.175Z,8.20
2018-03-26T17:26:52.659Z,8.30
2018-03-26T17:29:19.192Z,8.10
2018-03-26T17:31:45.672Z,8.20
2018-03-26T17:34:12.138Z,8.40
2018-03-26T17:36:39.453Z,8.20
2018-03-26T17:39:06.351Z,8.30
2018-03-26T17:41:33.585Z,8.20
2018-03-26T17:44:00.901Z,8.20
2018-03-26T17:46:27.399Z,8.20
2018-03-26T17:48:53.895Z,8.20
2018-03-26T17:51:20.403Z,8.00
2018-03-26T17:53:46.956Z,8.10
2018-03-26T17:56:14.186Z,8.10
2018-03-26T17:58:40.707Z,8.00
2018-03-26T18:01:07.309Z,8.10
2018-03-26T18:03:34.552Z,8.20
2018-03-26T18:06:01.053Z,8.20
2018-03-26T18:08:27.536Z,8.20
2018-03-26T18:10:54.039Z,8.10
2018-03-26T18:13:20.565Z,8.00
2018-03-26T18:15:47.108Z,7.90
2018-03-26T18:18:13.608Z,8.00
2018-03-26T18:20:40.112Z,8.00
2018-03-26T18:23:06.701Z,8.00
2018-03-26T18:25:33.242Z,8.00
2018-03-26T18:27:59.764Z,7.90
2018-03-26T18:30:26.272Z,7.90
2018-03-26T18:32:52.823Z,7.80
2018-03-26T18:35:19.371Z,8.00
2018-03-26T18:37:45.917Z,8.00
2018-03-26T18:40:12.425Z,7.90
2018-03-26T18:42:38.922Z,7.80
2018-03-26T18:45:05.416Z,7.70
2018-03-26T18:47:31.925Z,7.80
2018-03-26T18:49:58.458Z,7.90
2018-03-26T18:52:25.060Z,7.80
2018-03-26T18:54:51.527Z,7.80
2018-03-26T18:57:18.017Z,7.60
2018-03-26T18:59:44.655Z,7.70
2018-03-26T19:02:11.163Z,7.70
2018-03-26T19:04:37.628Z,7.70
2018-03-26T19:07:04.130Z,7.50
2018-03-26T19:09:30.633Z,7.70
2018-03-26T19:11:57.139Z,7.70
2018-03-26T19:14:23.633Z,7.60
2018-03-26T19:16:50.189Z,7.60
2018-03-26T19:19:16.820Z,7.60
2018-03-26T19:21:43.354Z,7.50
2018-03-26T19:24:09.857Z,7.50
2018-03-26T19:26:36.358Z,7.50
2018-03-26T19:29:02.836Z,7.50
2018-03-26T19:31:29.323Z,7.50
2018-03-26T19:33:55.895Z,7.30
2018-03-26T19:36:22.427Z,7.30
2018-03-26T19:38:48.898Z,7.20
2018-03-26T19:41:15.387Z,7.20
2018-03-26T19:43:42.660Z,7.10
2018-03-26T19:46:09.169Z,7.10
2018-03-26T19:48:35.660Z,7.00
2018-03-26T19:51:02.172Z,7.00
2018-03-26T19:53:28.647Z,7.00
2018-03-26T19:55:55.093Z,7.00
2018-03-26T19:58:21.541Z,7.00
2018-03-26T20:00:48.003Z,7.00
2018-03-26T20:03:14.530Z,6.90
2018-03-26T20:05:41.072Z,6.80
2018-03-26T20:08:07.558Z,6.80
2018-03-26T20:10:34.068Z,6.70
2018-03-26T20:13:00.563Z,6.70
2018-03-26T20:15:27.047Z,6.70
2018-03-26T20:17:53.555Z,6.70
2018-03-26T20:20:20.042Z,6.60
2018-03-26T20:22:46.555Z,6.60
2018-03-26T20:25:13.782Z,6.60
2018-03-26T20:27:40.290Z,6.50
2018-03-26T20:30:06.855Z,6.60
2018-03-26T20:32:33.365Z,6.50
2018-03-26T20:34:59.908Z,6.50
2018-03-26T20:37:26.450Z,6.50
2018-03-26T20:39:53.019Z,6.50
2018-03-26T20:42:20.267Z,6.60
2018-03-26T20:44:46.752Z,6.60
2018-03-26T20:47:14.622Z,6.70
2018-03-26T20:49:41.191Z,6.70
2018-03-26T20:52:07.674Z,6.60
2018-03-26T20:54:34.933Z,6.50
2018-03-26T20:57:01.437Z,6.50
2018-03-26T20:59:27.926Z,6.60
2018-03-26T21:01:54.441Z,6.50
2018-03-26T21:04:20.942Z,6.40
2018-03-26T21:06:47.430Z,6.40
2018-03-26T21:09:13.962Z,6.40
2018-03-26T21:11:40.481Z,6.40
2018-03-26T21:14:06.983Z,6.40
2018-03-26T21:16:33.454Z,6.30
2018-03-26T21:18:59.940Z,6.20
2018-03-26T21:21:26.467Z,6.20
2018-03-26T21:23:52.957Z,6.30
2018-03-26T21:26:20.185Z,6.30
2018-03-26T21:28:46.714Z,6.30
2018-03-26T21:31:13.216Z,6.30
2018-03-26T21:33:39.744Z,6.30
2018-03-26T21:36:06.341Z,6.30
2018-03-26T21:38:32.869Z,6.30
2018-03-26T21:40:59.435Z,6.30
2018-03-26T21:43:25.942Z,6.30
2018-03-26T21:45:52.475Z,6.20
2018-03-26T21:48:19.022Z,6.20
2018-03-26T21:50:45.480Z,6.20
2018-03-26T21:53:12.848Z,6.30
2018-03-26T21:55:39.431Z,6.20
2018-03-26T21:58:05.849Z,6.30
2018-03-26T22:00:32.327Z,6.20
2018-03-26T22:02:58.903Z,6.20
2018-03-26T22:05:25.405Z,6.20
2018-03-26T22:07:51.878Z,6.10
2018-03-26T22:10:18.362Z,6.10
2018-03-26T22:12:45.509Z,6.10
2018-03-26T22:15:11.957Z,6.10
2018-03-26T22:17:39.180Z,6.20
2018-03-26T22:20:05.642Z,6.20
2018-03-26T22:22:32.827Z,6.20
2018-03-26T22:24:59.271Z,6.20
2018-03-26T22:27:25.696Z,6.20
2018-03-26T22:29:52.080Z,6.20
2018-03-26T22:32:19.255Z,6.20
2018-03-26T22:34:45.640Z,6.10
2018-03-26T22:37:12.067Z,6.10
2018-03-26T22:39:38.520Z,6.20
2018-03-26T22:42:05.051Z,6.20
2018-03-26T22:44:31.481Z,6.20
2018-03-26T22:46:57.931Z,6.20
2018-03-26T22:49:24.442Z,6.10
2018-03-26T22:51:50.914Z,6.10
2018-03-26T22:54:17.396Z,6.10
2018-03-26T22:56:44.561Z,6.00
2018-03-26T22:59:10.994Z,6.00
2018-03-26T23:01:37.659Z,6.00
2018-03-26T23:04:04.154Z,5.90
2018-03-26T23:06:30.663Z,5.90
2018-03-26T23:08:57.211Z,5.90
2018-03-26T23:11:23.693Z,5.90
2018-03-26T23:13:51.605Z,5.90
2018-03-26T23:16:18.100Z,5.90
2018-03-26T23:18:45.305Z,5.90
2018-03-26T23:21:11.756Z,5.90
2018-03-26T23:23:38.217Z,5.90
2018-03-26T23:26:05.419Z,5.90
2018-03-26T23:28:31.875Z,5.80
2018-03-26T23:30:58.363Z,5.90
2018-03-26T23:33:24.928Z,5.90
2018-03-26T23:35:51.507Z,5.90
2018-03-26T23:38:18.016Z,5.80
2018-03-26T23:40:44.557Z,5.80
2018-03-26T23:43:11.055Z,5.80
2018-03-26T23:45:37.536Z,5.70
2018-03-26T23:48:04.039Z,5.70
2018-03-26T23:50:31.514Z,5.60
2018-03-26T23:52:58.004Z,5.60
2018-03-26T23:55:24.504Z,5.50
2018-03-26T23:57:51.007Z,5.40
